sensor_id;sensor_type;location;lat;lon;timestamp;P1;durP1;ratioP1;P2;durP2;ratioP2
31347;SDS011;21711;49.708;18.568;2024-02-21T00:01:26;11.70;;;3.80;;
31347;SDS011;21711;49.708;18.568;2024-02-21T00:03:54;11.98;;;3.22;;
31347;SDS011;21711;49.708;18.568;2024-02-21T00:06:21;12.10;;;3.63;;
31347;SDS011;21711;49.708;18.568;2024-02-21T00:08:49;16.00;;;3.47;;
31347;SDS011;21711;49.708;18.568;2024-02-21T00:11:16;13.60;;;4.20;;
31347;SDS011;21711;49.708;18.568;2024-02-21T00:13:44;12.70;;;4.22;;
31347;SDS011;21711;49.708;18.568;2024-02-21T00:16:11;9.30;;;3.85;;
31347;SDS011;21711;49.708;18.568;2024-02-21T00:18:40;13.55;;;3.75;;
31347;SDS011;21711;49.708;18.568;2024-02-21T00:21:07;12.95;;;3.35;;
31347;SDS011;21711;49.708;18.568;2024-02-21T00:23:35;12.43;;;3.42;;
31347;SDS011;21711;49.708;18.568;2024-02-21T00:26:02;11.23;;;3.63;;
31347;SDS011;21711;49.708;18.568;2024-02-21T00:28:30;10.30;;;3.67;;
31347;SDS011;21711;49.708;18.568;2024-02-21T00:30:57;10.20;;;2.78;;
31347;SDS011;21711;49.708;18.568;2024-02-21T00:33:25;10.68;;;3.15;;
31347;SDS011;21711;49.708;18.568;2024-02-21T00:35:52;10.27;;;2.97;;
31347;SDS011;21711;49.708;18.568;2024-02-21T00:38:20;11.80;;;3.10;;
31347;SDS011;21711;49.708;18.568;2024-02-21T00:40:47;14.65;;;3.00;;
31347;SDS011;21711;49.708;18.568;2024-02-21T00:43:15;12.82;;;2.35;;
31347;SDS011;21711;49.708;18.568;2024-02-21T00:45:42;12.45;;;3.13;;
31347;SDS011;21711;49.708;18.568;2024-02-21T00:48:10;14.73;;;2.83;;
31347;SDS011;21711;49.708;18.568;2024-02-21T00:50:37;8.23;;;3.88;;
31347;SDS011;21711;49.708;18.568;2024-02-21T00:53:05;10.80;;;3.45;;
31347;SDS011;21711;49.708;18.568;2024-02-21T00:55:32;9.15;;;2.38;;
31347;SDS011;21711;49.708;18.568;2024-02-21T00:58:00;10.27;;;2.55;;
31347;SDS011;21711;49.708;18.568;2024-02-21T01:00:27;8.27;;;2.63;;
31347;SDS011;21711;49.708;18.568;2024-02-21T01:02:55;7.22;;;2.42;;
31347;SDS011;21711;49.708;18.568;2024-02-21T01:05:22;19.98;;;3.15;;
31347;SDS011;21711;49.708;18.568;2024-02-21T01:07:49;10.13;;;2.30;;
31347;SDS011;21711;49.708;18.568;2024-02-21T01:10:16;12.20;;;3.22;;
31347;SDS011;21711;49.708;18.568;2024-02-21T01:12:44;9.90;;;2.45;;
31347;SDS011;21711;49.708;18.568;2024-02-21T01:15:11;11.10;;;2.53;;
31347;SDS011;21711;49.708;18.568;2024-02-21T01:17:39;14.23;;;2.92;;
31347;SDS011;21711;49.708;18.568;2024-02-21T01:20:07;6.53;;;2.55;;
31347;SDS011;21711;49.708;18.568;2024-02-21T01:22:35;12.35;;;3.28;;
31347;SDS011;21711;49.708;18.568;2024-02-21T01:25:02;10.93;;;2.50;;
31347;SDS011;21711;49.708;18.568;2024-02-21T01:27:30;10.23;;;2.53;;
31347;SDS011;21711;49.708;18.568;2024-02-21T01:29:57;12.52;;;1.88;;
31347;SDS011;21711;49.708;18.568;2024-02-21T01:32:24;7.18;;;2.25;;
31347;SDS011;21711;49.708;18.568;2024-02-21T01:34:52;7.30;;;2.05;;
31347;SDS011;21711;49.708;18.568;2024-02-21T01:37:19;10.00;;;2.67;;
31347;SDS011;21711;49.708;18.568;2024-02-21T01:39:47;7.07;;;2.42;;
31347;SDS011;21711;49.708;18.568;2024-02-21T01:42:16;9.30;;;2.63;;
31347;SDS011;21711;49.708;18.568;2024-02-21T01:44:43;8.00;;;2.58;;
31347;SDS011;21711;49.708;18.568;2024-02-21T01:47:10;11.05;;;2.28;;
31347;SDS011;21711;49.708;18.568;2024-02-21T01:49:40;11.07;;;2.20;;
31347;SDS011;21711;49.708;18.568;2024-02-21T01:52:08;10.18;;;2.35;;
31347;SDS011;21711;49.708;18.568;2024-02-21T01:54:38;5.72;;;1.85;;
31347;SDS011;21711;49.708;18.568;2024-02-21T01:57:06;10.10;;;2.10;;
31347;SDS011;21711;49.708;18.568;2024-02-21T01:59:33;7.80;;;2.38;;
31347;SDS011;21711;49.708;18.568;2024-02-21T02:02:02;11.13;;;2.33;;
31347;SDS011;21711;49.708;18.568;2024-02-21T02:04:30;8.32;;;2.53;;
31347;SDS011;21711;49.708;18.568;2024-02-21T02:06:57;10.27;;;2.35;;
31347;SDS011;21711;49.708;18.568;2024-02-21T02:09:29;6.97;;;2.25;;
31347;SDS011;21711;49.708;18.568;2024-02-21T02:11:56;12.57;;;3.13;;
31347;SDS011;21711;49.708;18.568;2024-02-21T02:14:25;13.93;;;2.63;;
31347;SDS011;21711;49.708;18.568;2024-02-21T02:16:52;9.70;;;2.50;;
31347;SDS011;21711;49.708;18.568;2024-02-21T02:19:20;8.80;;;2.17;;
31347;SDS011;21711;49.708;18.568;2024-02-21T02:21:52;10.07;;;2.28;;
31347;SDS011;21711;49.708;18.568;2024-02-21T02:24:25;8.25;;;1.67;;
31347;SDS011;21711;49.708;18.568;2024-02-21T02:26:53;6.53;;;1.70;;
31347;SDS011;21711;49.708;18.568;2024-02-21T02:29:20;8.80;;;1.63;;
31347;SDS011;21711;49.708;18.568;2024-02-21T02:31:48;5.05;;;1.65;;
31347;SDS011;21711;49.708;18.568;2024-02-21T02:34:16;7.57;;;2.53;;
31347;SDS011;21711;49.708;18.568;2024-02-21T02:36:44;13.23;;;2.00;;
31347;SDS011;21711;49.708;18.568;2024-02-21T02:39:11;6.65;;;2.30;;
31347;SDS011;21711;49.708;18.568;2024-02-21T02:41:38;10.18;;;1.80;;
31347;SDS011;21711;49.708;18.568;2024-02-21T02:44:05;10.98;;;1.65;;
31347;SDS011;21711;49.708;18.568;2024-02-21T02:46:32;8.52;;;1.77;;
31347;SDS011;21711;49.708;18.568;2024-02-21T02:49:00;11.85;;;2.40;;
31347;SDS011;21711;49.708;18.568;2024-02-21T02:51:28;7.75;;;1.75;;
31347;SDS011;21711;49.708;18.568;2024-02-21T02:53:55;10.07;;;2.13;;
31347;SDS011;21711;49.708;18.568;2024-02-21T02:56:23;8.07;;;1.90;;
31347;SDS011;21711;49.708;18.568;2024-02-21T02:58:51;6.60;;;1.80;;
31347;SDS011;21711;49.708;18.568;2024-02-21T03:01:18;11.05;;;3.08;;
31347;SDS011;21711;49.708;18.568;2024-02-21T03:03:46;6.32;;;2.13;;
31347;SDS011;21711;49.708;18.568;2024-02-21T03:06:13;5.25;;;1.75;;
31347;SDS011;21711;49.708;18.568;2024-02-21T03:08:41;10.00;;;2.30;;
31347;SDS011;21711;49.708;18.568;2024-02-21T03:11:09;8.25;;;2.50;;
31347;SDS011;21711;49.708;18.568;2024-02-21T03:13:37;9.00;;;2.45;;
31347;SDS011;21711;49.708;18.568;2024-02-21T03:16:05;6.90;;;2.38;;
31347;SDS011;21711;49.708;18.568;2024-02-21T03:18:32;8.15;;;2.28;;
31347;SDS011;21711;49.708;18.568;2024-02-21T03:21:00;11.07;;;1.70;;
31347;SDS011;21711;49.708;18.568;2024-02-21T03:23:27;13.30;;;1.83;;
31347;SDS011;21711;49.708;18.568;2024-02-21T03:25:55;6.95;;;2.17;;
31347;SDS011;21711;49.708;18.568;2024-02-21T03:28:22;5.78;;;2.17;;
31347;SDS011;21711;49.708;18.568;2024-02-21T03:30:49;8.85;;;2.65;;
31347;SDS011;21711;49.708;18.568;2024-02-21T03:33:17;13.60;;;3.03;;
31347;SDS011;21711;49.708;18.568;2024-02-21T03:35:46;10.60;;;2.00;;
31347;SDS011;21711;49.708;18.568;2024-02-21T03:38:14;10.65;;;2.30;;
31347;SDS011;21711;49.708;18.568;2024-02-21T03:40:41;10.05;;;2.05;;
31347;SDS011;21711;49.708;18.568;2024-02-21T03:43:09;4.72;;;1.85;;
31347;SDS011;21711;49.708;18.568;2024-02-21T03:45:36;5.30;;;1.80;;
31347;SDS011;21711;49.708;18.568;2024-02-21T03:48:04;10.00;;;1.98;;
31347;SDS011;21711;49.708;18.568;2024-02-21T03:50:32;12.45;;;2.10;;
31347;SDS011;21711;49.708;18.568;2024-02-21T03:52:59;4.68;;;1.75;;
31347;SDS011;21711;49.708;18.568;2024-02-21T03:55:27;9.35;;;1.83;;
31347;SDS011;21711;49.708;18.568;2024-02-21T03:57:54;5.90;;;1.60;;
31347;SDS011;21711;49.708;18.568;2024-02-21T04:00:22;6.22;;;1.65;;
31347;SDS011;21711;49.708;18.568;2024-02-21T04:02:50;6.70;;;2.00;;
31347;SDS011;21711;49.708;18.568;2024-02-21T04:05:18;6.50;;;1.70;;
31347;SDS011;21711;49.708;18.568;2024-02-21T04:07:45;8.80;;;1.90;;
31347;SDS011;21711;49.708;18.568;2024-02-21T04:10:13;10.10;;;2.10;;
31347;SDS011;21711;49.708;18.568;2024-02-21T04:12:40;6.18;;;2.08;;
31347;SDS011;21711;49.708;18.568;2024-02-21T04:15:08;9.55;;;2.45;;
31347;SDS011;21711;49.708;18.568;2024-02-21T04:17:36;8.02;;;2.45;;
31347;SDS011;21711;49.708;18.568;2024-02-21T04:20:04;13.93;;;2.83;;
31347;SDS011;21711;49.708;18.568;2024-02-21T04:25:02;11.15;;;3.88;;
31347;SDS011;21711;49.708;18.568;2024-02-21T04:27:29;10.35;;;2.80;;
31347;SDS011;21711;49.708;18.568;2024-02-21T04:29:57;6.93;;;2.70;;
31347;SDS011;21711;49.708;18.568;2024-02-21T04:32:24;10.07;;;2.92;;
31347;SDS011;21711;49.708;18.568;2024-02-21T04:34:54;14.02;;;2.85;;
31347;SDS011;21711;49.708;18.568;2024-02-21T04:37:21;15.60;;;3.03;;
31347;SDS011;21711;49.708;18.568;2024-02-21T04:39:49;11.23;;;2.97;;
31347;SDS011;21711;49.708;18.568;2024-02-21T04:42:17;12.73;;;2.75;;
31347;SDS011;21711;49.708;18.568;2024-02-21T04:44:44;9.48;;;2.38;;
31347;SDS011;21711;49.708;18.568;2024-02-21T04:47:12;12.77;;;2.90;;
31347;SDS011;21711;49.708;18.568;2024-02-21T04:49:39;10.73;;;3.05;;
31347;SDS011;21711;49.708;18.568;2024-02-21T04:52:07;10.88;;;3.22;;
31347;SDS011;21711;49.708;18.568;2024-02-21T04:54:34;7.90;;;3.05;;
31347;SDS011;21711;49.708;18.568;2024-02-21T04:57:02;13.63;;;2.97;;
31347;SDS011;21711;49.708;18.568;2024-02-21T04:59:29;12.93;;;3.38;;
31347;SDS011;21711;49.708;18.568;2024-02-21T05:01:57;11.65;;;4.00;;
31347;SDS011;21711;49.708;18.568;2024-02-21T05:04:25;16.80;;;3.17;;
31347;SDS011;21711;49.708;18.568;2024-02-21T05:06:52;10.57;;;3.60;;
31347;SDS011;21711;49.708;18.568;2024-02-21T05:09:20;9.90;;;3.55;;
31347;SDS011;21711;49.708;18.568;2024-02-21T05:11:47;11.65;;;3.35;;
31347;SDS011;21711;49.708;18.568;2024-02-21T05:14:15;10.43;;;3.30;;
31347;SDS011;21711;49.708;18.568;2024-02-21T05:16:42;8.77;;;3.65;;
31347;SDS011;21711;49.708;18.568;2024-02-21T05:19:10;8.48;;;3.25;;
31347;SDS011;21711;49.708;18.568;2024-02-21T05:21:37;9.70;;;3.28;;
31347;SDS011;21711;49.708;18.568;2024-02-21T05:24:05;8.90;;;3.72;;
31347;SDS011;21711;49.708;18.568;2024-02-21T05:26:32;10.50;;;3.10;;
31347;SDS011;21711;49.708;18.568;2024-02-21T05:29:00;9.20;;;3.53;;
31347;SDS011;21711;49.708;18.568;2024-02-21T05:31:42;13.88;;;3.80;;
31347;SDS011;21711;49.708;18.568;2024-02-21T05:34:19;15.57;;;3.33;;
31347;SDS011;21711;49.708;18.568;2024-02-21T05:36:48;9.68;;;3.35;;
31347;SDS011;21711;49.708;18.568;2024-02-21T05:39:19;14.18;;;3.40;;
31347;SDS011;21711;49.708;18.568;2024-02-21T05:41:49;11.48;;;3.35;;
31347;SDS011;21711;49.708;18.568;2024-02-21T05:44:17;10.32;;;2.90;;
31347;SDS011;21711;49.708;18.568;2024-02-21T05:46:46;11.80;;;3.53;;
31347;SDS011;21711;49.708;18.568;2024-02-21T05:49:13;10.60;;;3.53;;
31347;SDS011;21711;49.708;18.568;2024-02-21T05:51:41;11.25;;;3.83;;
31347;SDS011;21711;49.708;18.568;2024-02-21T05:54:08;11.80;;;3.75;;
31347;SDS011;21711;49.708;18.568;2024-02-21T05:56:36;9.55;;;3.90;;
31347;SDS011;21711;49.708;18.568;2024-02-21T05:59:04;11.27;;;4.68;;
31347;SDS011;21711;49.708;18.568;2024-02-21T06:01:31;8.95;;;3.10;;
31347;SDS011;21711;49.708;18.568;2024-02-21T06:03:58;11.35;;;3.30;;
31347;SDS011;21711;49.708;18.568;2024-02-21T06:06:26;10.75;;;3.78;;
31347;SDS011;21711;49.708;18.568;2024-02-21T06:08:53;9.88;;;3.58;;
31347;SDS011;21711;49.708;18.568;2024-02-21T06:11:22;12.75;;;3.33;;
31347;SDS011;21711;49.708;18.568;2024-02-21T06:13:49;11.82;;;3.60;;
31347;SDS011;21711;49.708;18.568;2024-02-21T06:16:17;12.43;;;3.83;;
31347;SDS011;21711;49.708;18.568;2024-02-21T06:18:44;7.13;;;3.55;;
31347;SDS011;21711;49.708;18.568;2024-02-21T06:21:11;7.90;;;3.42;;
31347;SDS011;21711;49.708;18.568;2024-02-21T06:23:39;9.98;;;3.60;;
31347;SDS011;21711;49.708;18.568;2024-02-21T06:26:06;8.63;;;3.60;;
31347;SDS011;21711;49.708;18.568;2024-02-21T06:28:34;18.60;;;5.90;;
31347;SDS011;21711;49.708;18.568;2024-02-21T06:31:01;17.45;;;4.97;;
31347;SDS011;21711;49.708;18.568;2024-02-21T06:33:29;16.63;;;5.30;;
31347;SDS011;21711;49.708;18.568;2024-02-21T06:35:56;16.42;;;3.97;;
31347;SDS011;21711;49.708;18.568;2024-02-21T06:38:24;8.23;;;3.50;;
31347;SDS011;21711;49.708;18.568;2024-02-21T06:40:51;13.27;;;3.80;;
31347;SDS011;21711;49.708;18.568;2024-02-21T06:43:20;9.77;;;3.33;;
31347;SDS011;21711;49.708;18.568;2024-02-21T06:45:48;12.35;;;3.88;;
31347;SDS011;21711;49.708;18.568;2024-02-21T06:48:20;14.23;;;4.03;;
31347;SDS011;21711;49.708;18.568;2024-02-21T06:50:48;13.40;;;3.22;;
31347;SDS011;21711;49.708;18.568;2024-02-21T06:53:15;12.10;;;3.35;;
31347;SDS011;21711;49.708;18.568;2024-02-21T06:55:43;9.02;;;3.58;;
31347;SDS011;21711;49.708;18.568;2024-02-21T06:58:10;15.60;;;4.88;;
31347;SDS011;21711;49.708;18.568;2024-02-21T07:00:39;9.00;;;3.83;;
31347;SDS011;21711;49.708;18.568;2024-02-21T07:03:07;11.20;;;3.15;;
31347;SDS011;21711;49.708;18.568;2024-02-21T07:05:34;13.05;;;3.60;;
31347;SDS011;21711;49.708;18.568;2024-02-21T07:08:02;16.85;;;4.00;;
31347;SDS011;21711;49.708;18.568;2024-02-21T07:10:30;12.77;;;3.92;;
31347;SDS011;21711;49.708;18.568;2024-02-21T07:12:58;14.98;;;3.30;;
31347;SDS011;21711;49.708;18.568;2024-02-21T07:15:25;12.27;;;3.13;;
31347;SDS011;21711;49.708;18.568;2024-02-21T07:17:53;13.07;;;3.55;;
31347;SDS011;21711;49.708;18.568;2024-02-21T07:20:21;15.70;;;3.88;;
31347;SDS011;21711;49.708;18.568;2024-02-21T07:22:48;12.25;;;3.28;;
31347;SDS011;21711;49.708;18.568;2024-02-21T07:25:16;17.30;;;3.80;;
31347;SDS011;21711;49.708;18.568;2024-02-21T07:27:43;16.33;;;4.45;;
31347;SDS011;21711;49.708;18.568;2024-02-21T07:30:11;11.18;;;3.47;;
31347;SDS011;21711;49.708;18.568;2024-02-21T07:32:43;14.73;;;3.75;;
31347;SDS011;21711;49.708;18.568;2024-02-21T07:35:10;9.10;;;3.85;;
31347;SDS011;21711;49.708;18.568;2024-02-21T07:37:39;18.42;;;4.03;;
31347;SDS011;21711;49.708;18.568;2024-02-21T07:40:06;9.27;;;2.85;;
31347;SDS011;21711;49.708;18.568;2024-02-21T07:42:43;12.93;;;4.13;;
31347;SDS011;21711;49.708;18.568;2024-02-21T07:45:16;10.57;;;3.63;;
31347;SDS011;21711;49.708;18.568;2024-02-21T07:47:45;10.40;;;3.08;;
31347;SDS011;21711;49.708;18.568;2024-02-21T07:50:12;13.80;;;3.13;;
31347;SDS011;21711;49.708;18.568;2024-02-21T07:52:40;11.98;;;4.03;;
31347;SDS011;21711;49.708;18.568;2024-02-21T07:55:08;12.30;;;3.20;;
31347;SDS011;21711;49.708;18.568;2024-02-21T07:57:37;15.68;;;3.35;;
31347;SDS011;21711;49.708;18.568;2024-02-21T08:00:04;12.40;;;3.25;;
31347;SDS011;21711;49.708;18.568;2024-02-21T08:02:38;11.13;;;3.28;;
31347;SDS011;21711;49.708;18.568;2024-02-21T08:05:06;12.10;;;3.03;;
31347;SDS011;21711;49.708;18.568;2024-02-21T08:07:34;9.70;;;3.28;;
31347;SDS011;21711;49.708;18.568;2024-02-21T08:10:01;9.50;;;2.95;;
31347;SDS011;21711;49.708;18.568;2024-02-21T08:12:30;11.38;;;3.08;;
31347;SDS011;21711;49.708;18.568;2024-02-21T08:14:59;13.50;;;3.10;;
31347;SDS011;21711;49.708;18.568;2024-02-21T08:17:27;14.25;;;2.67;;
31347;SDS011;21711;49.708;18.568;2024-02-21T08:19:55;11.25;;;2.88;;
31347;SDS011;21711;49.708;18.568;2024-02-21T08:22:22;12.63;;;2.83;;
31347;SDS011;21711;49.708;18.568;2024-02-21T08:24:52;8.57;;;2.70;;
31347;SDS011;21711;49.708;18.568;2024-02-21T08:27:20;13.10;;;3.97;;
31347;SDS011;21711;49.708;18.568;2024-02-21T08:29:47;10.30;;;2.75;;
31347;SDS011;21711;49.708;18.568;2024-02-21T08:32:14;20.08;;;3.40;;
31347;SDS011;21711;49.708;18.568;2024-02-21T08:34:42;9.93;;;3.65;;
31347;SDS011;21711;49.708;18.568;2024-02-21T08:37:09;8.88;;;2.47;;
31347;SDS011;21711;49.708;18.568;2024-02-21T08:39:37;11.13;;;2.40;;
31347;SDS011;21711;49.708;18.568;2024-02-21T08:42:05;5.78;;;2.20;;
31347;SDS011;21711;49.708;18.568;2024-02-21T08:44:32;10.55;;;3.42;;
31347;SDS011;21711;49.708;18.568;2024-02-21T08:47:00;8.90;;;2.35;;
31347;SDS011;21711;49.708;18.568;2024-02-21T08:49:31;6.63;;;2.25;;
31347;SDS011;21711;49.708;18.568;2024-02-21T08:52:01;14.45;;;2.75;;
31347;SDS011;21711;49.708;18.568;2024-02-21T08:54:31;11.32;;;2.88;;
31347;SDS011;21711;49.708;18.568;2024-02-21T08:57:02;9.95;;;2.63;;
31347;SDS011;21711;49.708;18.568;2024-02-21T08:59:30;7.13;;;2.10;;
31347;SDS011;21711;49.708;18.568;2024-02-21T09:01:57;6.20;;;2.60;;
31347;SDS011;21711;49.708;18.568;2024-02-21T09:04:24;10.85;;;2.92;;
31347;SDS011;21711;49.708;18.568;2024-02-21T09:06:52;10.35;;;4.07;;
31347;SDS011;21711;49.708;18.568;2024-02-21T09:09:19;7.78;;;2.42;;
31347;SDS011;21711;49.708;18.568;2024-02-21T09:11:47;9.50;;;3.17;;
31347;SDS011;21711;49.708;18.568;2024-02-21T09:14:14;8.25;;;2.60;;
31347;SDS011;21711;49.708;18.568;2024-02-21T09:16:42;6.80;;;2.25;;
31347;SDS011;21711;49.708;18.568;2024-02-21T09:19:10;15.57;;;2.03;;
31347;SDS011;21711;49.708;18.568;2024-02-21T09:21:38;6.65;;;2.80;;
31347;SDS011;21711;49.708;18.568;2024-02-21T09:24:05;5.63;;;2.28;;
31347;SDS011;21711;49.708;18.568;2024-02-21T09:26:33;6.82;;;2.40;;
31347;SDS011;21711;49.708;18.568;2024-02-21T09:29:00;6.10;;;2.47;;
31347;SDS011;21711;49.708;18.568;2024-02-21T09:31:28;8.82;;;2.28;;
31347;SDS011;21711;49.708;18.568;2024-02-21T09:33:56;8.10;;;3.15;;
31347;SDS011;21711;49.708;18.568;2024-02-21T09:36:23;7.55;;;2.30;;
31347;SDS011;21711;49.708;18.568;2024-02-21T09:38:51;7.38;;;2.53;;
31347;SDS011;21711;49.708;18.568;2024-02-21T09:41:18;11.85;;;3.67;;
31347;SDS011;21711;49.708;18.568;2024-02-21T09:43:54;7.35;;;2.38;;
31347;SDS011;21711;49.708;18.568;2024-02-21T09:46:30;8.23;;;2.58;;
31347;SDS011;21711;49.708;18.568;2024-02-21T09:49:38;5.38;;;1.85;;
31347;SDS011;21711;49.708;18.568;2024-02-21T09:52:09;6.53;;;1.95;;
31347;SDS011;21711;49.708;18.568;2024-02-21T09:54:40;7.40;;;2.33;;
31347;SDS011;21711;49.708;18.568;2024-02-21T09:57:11;5.25;;;2.15;;
31347;SDS011;21711;49.708;18.568;2024-02-21T09:59:39;7.90;;;2.47;;
31347;SDS011;21711;49.708;18.568;2024-02-21T10:02:10;7.72;;;2.30;;
31347;SDS011;21711;49.708;18.568;2024-02-21T10:04:42;8.82;;;2.58;;
31347;SDS011;21711;49.708;18.568;2024-02-21T10:07:09;7.53;;;1.83;;
31347;SDS011;21711;49.708;18.568;2024-02-21T10:09:37;7.65;;;2.40;;
31347;SDS011;21711;49.708;18.568;2024-02-21T10:12:07;8.48;;;2.10;;
31347;SDS011;21711;49.708;18.568;2024-02-21T10:14:37;8.98;;;1.98;;
31347;SDS011;21711;49.708;18.568;2024-02-21T10:17:05;7.30;;;1.90;;
31347;SDS011;21711;49.708;18.568;2024-02-21T10:19:37;6.18;;;2.10;;
31347;SDS011;21711;49.708;18.568;2024-02-21T10:22:07;8.35;;;2.00;;
31347;SDS011;21711;49.708;18.568;2024-02-21T10:24:36;4.55;;;2.03;;
31347;SDS011;21711;49.708;18.568;2024-02-21T10:27:10;5.88;;;2.15;;
31347;SDS011;21711;49.708;18.568;2024-02-21T10:29:39;6.50;;;2.15;;
31347;SDS011;21711;49.708;18.568;2024-02-21T10:32:12;10.10;;;2.40;;
31347;SDS011;21711;49.708;18.568;2024-02-21T10:34:41;6.10;;;1.92;;
31347;SDS011;21711;49.708;18.568;2024-02-21T10:37:10;8.35;;;2.08;;
31347;SDS011;21711;49.708;18.568;2024-02-21T10:39:40;6.50;;;1.52;;
31347;SDS011;21711;49.708;18.568;2024-02-21T10:42:10;5.25;;;1.50;;
31347;SDS011;21711;49.708;18.568;2024-02-21T10:44:39;11.77;;;1.98;;
31347;SDS011;21711;49.708;18.568;2024-02-21T10:47:09;9.68;;;2.10;;
31347;SDS011;21711;49.708;18.568;2024-02-21T10:49:44;4.97;;;1.60;;
31347;SDS011;21711;49.708;18.568;2024-02-21T10:52:17;5.88;;;1.83;;
31347;SDS011;21711;49.708;18.568;2024-02-21T10:54:56;9.82;;;2.45;;
31347;SDS011;21711;49.708;18.568;2024-02-21T10:57:35;6.22;;;2.00;;
31347;SDS011;21711;49.708;18.568;2024-02-21T11:00:04;4.38;;;1.45;;
31347;SDS011;21711;49.708;18.568;2024-02-21T11:02:39;7.65;;;1.58;;
31347;SDS011;21711;49.708;18.568;2024-02-21T11:05:08;6.75;;;1.80;;
31347;SDS011;21711;49.708;18.568;2024-02-21T11:07:36;6.60;;;1.67;;
31347;SDS011;21711;49.708;18.568;2024-02-21T11:10:05;6.78;;;1.85;;
31347;SDS011;21711;49.708;18.568;2024-02-21T11:12:46;7.85;;;1.75;;
31347;SDS011;21711;49.708;18.568;2024-02-21T11:15:14;5.95;;;1.90;;
31347;SDS011;21711;49.708;18.568;2024-02-21T11:17:42;6.22;;;1.67;;
31347;SDS011;21711;49.708;18.568;2024-02-21T11:20:36;6.70;;;1.75;;
31347;SDS011;21711;49.708;18.568;2024-02-21T11:23:05;7.90;;;1.35;;
31347;SDS011;21711;49.708;18.568;2024-02-21T11:25:33;5.82;;;1.38;;
31347;SDS011;21711;49.708;18.568;2024-02-21T11:28:04;6.25;;;2.08;;
31347;SDS011;21711;49.708;18.568;2024-02-21T11:30:37;7.45;;;1.45;;
31347;SDS011;21711;49.708;18.568;2024-02-21T11:33:09;5.85;;;1.70;;
31347;SDS011;21711;49.708;18.568;2024-02-21T11:35:39;7.07;;;2.78;;
31347;SDS011;21711;49.708;18.568;2024-02-21T11:38:10;8.05;;;1.80;;
31347;SDS011;21711;49.708;18.568;2024-02-21T11:40:44;10.30;;;1.95;;
31347;SDS011;21711;49.708;18.568;2024-02-21T11:43:14;11.30;;;2.10;;
31347;SDS011;21711;49.708;18.568;2024-02-21T11:45:43;8.90;;;1.95;;
31347;SDS011;21711;49.708;18.568;2024-02-21T11:48:10;6.53;;;1.58;;
31347;SDS011;21711;49.708;18.568;2024-02-21T11:50:38;8.18;;;2.03;;
31347;SDS011;21711;49.708;18.568;2024-02-21T11:53:06;9.52;;;1.90;;
31347;SDS011;21711;49.708;18.568;2024-02-21T11:55:34;5.95;;;1.92;;
31347;SDS011;21711;49.708;18.568;2024-02-21T11:58:01;9.55;;;2.10;;
31347;SDS011;21711;49.708;18.568;2024-02-21T12:00:29;8.38;;;2.38;;
31347;SDS011;21711;49.708;18.568;2024-02-21T12:02:58;6.53;;;2.33;;
31347;SDS011;21711;49.708;18.568;2024-02-21T12:05:28;8.02;;;1.92;;
31347;SDS011;21711;49.708;18.568;2024-02-21T12:07:56;9.30;;;2.00;;
31347;SDS011;21711;49.708;18.568;2024-02-21T12:10:27;6.40;;;2.15;;
31347;SDS011;21711;49.708;18.568;2024-02-21T12:13:07;9.25;;;2.47;;
31347;SDS011;21711;49.708;18.568;2024-02-21T12:15:36;9.43;;;2.53;;
31347;SDS011;21711;49.708;18.568;2024-02-21T12:18:05;8.70;;;2.40;;
31347;SDS011;21711;49.708;18.568;2024-02-21T12:20:33;5.80;;;2.13;;
31347;SDS011;21711;49.708;18.568;2024-02-21T12:23:03;9.05;;;2.38;;
31347;SDS011;21711;49.708;18.568;2024-02-21T12:25:30;6.85;;;2.72;;
31347;SDS011;21711;49.708;18.568;2024-02-21T12:27:58;8.77;;;2.83;;
31347;SDS011;21711;49.708;18.568;2024-02-21T12:30:27;6.78;;;2.60;;
31347;SDS011;21711;49.708;18.568;2024-02-21T12:32:54;7.20;;;2.30;;
31347;SDS011;21711;49.708;18.568;2024-02-21T12:35:22;5.82;;;2.60;;
31347;SDS011;21711;49.708;18.568;2024-02-21T12:37:50;6.13;;;2.40;;
31347;SDS011;21711;49.708;18.568;2024-02-21T12:40:17;10.15;;;3.75;;
31347;SDS011;21711;49.708;18.568;2024-02-21T12:42:45;8.88;;;3.03;;
31347;SDS011;21711;49.708;18.568;2024-02-21T12:45:12;10.85;;;4.72;;
31347;SDS011;21711;49.708;18.568;2024-02-21T12:47:42;12.02;;;2.80;;
31347;SDS011;21711;49.708;18.568;2024-02-21T12:50:10;13.20;;;3.67;;
31347;SDS011;21711;49.708;18.568;2024-02-21T12:52:37;12.25;;;3.65;;
31347;SDS011;21711;49.708;18.568;2024-02-21T12:55:05;11.18;;;3.22;;
31347;SDS011;21711;49.708;18.568;2024-02-21T12:57:33;8.35;;;3.10;;
31347;SDS011;21711;49.708;18.568;2024-02-21T13:00:00;12.82;;;3.75;;
31347;SDS011;21711;49.708;18.568;2024-02-21T13:02:28;10.57;;;3.45;;
31347;SDS011;21711;49.708;18.568;2024-02-21T13:04:56;12.27;;;3.22;;
31347;SDS011;21711;49.708;18.568;2024-02-21T13:07:23;9.63;;;2.75;;
31347;SDS011;21711;49.708;18.568;2024-02-21T13:09:51;8.43;;;3.10;;
31347;SDS011;21711;49.708;18.568;2024-02-21T13:12:18;15.23;;;4.03;;
31347;SDS011;21711;49.708;18.568;2024-02-21T13:14:46;8.60;;;2.75;;
31347;SDS011;21711;49.708;18.568;2024-02-21T13:17:14;11.10;;;3.00;;
31347;SDS011;21711;49.708;18.568;2024-02-21T13:19:43;9.68;;;3.78;;
31347;SDS011;21711;49.708;18.568;2024-02-21T13:22:11;11.63;;;3.50;;
31347;SDS011;21711;49.708;18.568;2024-02-21T13:24:38;10.63;;;3.13;;
31347;SDS011;21711;49.708;18.568;2024-02-21T13:27:05;9.07;;;2.92;;
31347;SDS011;21711;49.708;18.568;2024-02-21T13:29:33;10.68;;;2.80;;
31347;SDS011;21711;49.708;18.568;2024-02-21T13:32:00;7.10;;;2.47;;
31347;SDS011;21711;49.708;18.568;2024-02-21T13:34:27;8.45;;;2.65;;
31347;SDS011;21711;49.708;18.568;2024-02-21T13:36:55;9.35;;;3.33;;
31347;SDS011;21711;49.708;18.568;2024-02-21T13:39:23;19.83;;;2.88;;
31347;SDS011;21711;49.708;18.568;2024-02-21T13:41:51;6.60;;;2.97;;
31347;SDS011;21711;49.708;18.568;2024-02-21T13:44:18;9.05;;;2.95;;
31347;SDS011;21711;49.708;18.568;2024-02-21T13:46:46;8.20;;;3.08;;
31347;SDS011;21711;49.708;18.568;2024-02-21T13:49:13;11.30;;;3.25;;
31347;SDS011;21711;49.708;18.568;2024-02-21T13:51:42;14.13;;;3.60;;
31347;SDS011;21711;49.708;18.568;2024-02-21T13:54:11;11.65;;;3.25;;
31347;SDS011;21711;49.708;18.568;2024-02-21T13:56:41;9.55;;;3.85;;
31347;SDS011;21711;49.708;18.568;2024-02-21T13:59:08;15.05;;;3.92;;
31347;SDS011;21711;49.708;18.568;2024-02-21T14:01:36;7.38;;;3.05;;
31347;SDS011;21711;49.708;18.568;2024-02-21T14:04:03;5.75;;;2.75;;
31347;SDS011;21711;49.708;18.568;2024-02-21T14:06:31;10.75;;;2.88;;
31347;SDS011;21711;49.708;18.568;2024-02-21T14:08:59;7.05;;;2.65;;
31347;SDS011;21711;49.708;18.568;2024-02-21T14:11:27;6.70;;;2.10;;
31347;SDS011;21711;49.708;18.568;2024-02-21T14:13:57;5.53;;;2.45;;
31347;SDS011;21711;49.708;18.568;2024-02-21T14:16:25;8.60;;;2.95;;
31347;SDS011;21711;49.708;18.568;2024-02-21T14:18:52;7.68;;;2.40;;
31347;SDS011;21711;49.708;18.568;2024-02-21T14:21:20;6.57;;;2.35;;
31347;SDS011;21711;49.708;18.568;2024-02-21T14:23:48;4.53;;;2.10;;
31347;SDS011;21711;49.708;18.568;2024-02-21T14:26:16;8.88;;;2.40;;
31347;SDS011;21711;49.708;18.568;2024-02-21T14:28:43;6.03;;;2.50;;
31347;SDS011;21711;49.708;18.568;2024-02-21T14:31:12;5.53;;;2.10;;
31347;SDS011;21711;49.708;18.568;2024-02-21T14:33:39;4.05;;;1.83;;
31347;SDS011;21711;49.708;18.568;2024-02-21T14:36:07;7.15;;;1.98;;
31347;SDS011;21711;49.708;18.568;2024-02-21T14:38:35;7.03;;;2.03;;